Time;durP1;ratioP1;P1;durP2;ratioP2;P2;SDS_P1;SDS_P2;PMS_P1;PMS_P2;Temp;Humidity;BMP_temperature;BMP_pressure;BME280_temperature;BME280_humidity;BME280_pressure;Samples;Min_cycle;Max_cycle;Signal;HPM_P1;HPM_P2
2023/04/13 00:01:22;;;;;;;5.07;1.17;;;;;;;;;;5004893;28;20112;-67
2023/04/13 00:03:47;;;;;;;4.75;1.55;;;;;;;;;;5004713;28;20029;-68
2023/04/13 00:06:12;;;;;;;2.50;1.05;;;;;;;;;;5005953;28;20026;-67
2023/04/13 00:08:38;;;;;;;3.83;1.15;;;;;;;;;;4992680;28;20575;-67
2023/04/13 00:11:05;;;;;;;5.72;1.27;;;;;;;;;;4996514;28;20061;-68
2023/04/13 00:13:30;;;;;;;4.70;0.75;;;;;;;;;;5000676;28;20052;-68
2023/04/13 00:15:56;;;;;;;6.22;1.10;;;;;;;;;;5001570;28;20081;-67
2023/04/13 00:18:22;;;;;;;6.57;1.20;;;;;;;;;;4991544;28;20030;-67
2023/04/13 00:20:48;;;;;;;4.85;0.85;;;;;;;;;;5016784;28;20038;-67
2023/04/13 00:23:14;;;;;;;3.67;1.08;;;;;;;;;;5007533;28;20428;-68
2023/04/13 00:25:40;;;;;;;2.30;0.80;;;;;;;;;;5008849;28;20030;-68
2023/04/13 00:28:05;;;;;;;3.17;1.20;;;;;;;;;;5002942;28;20061;-67
2023/04/13 00:30:31;;;;;;;2.47;0.75;;;;;;;;;;5003167;28;20026;-68
2023/04/13 00:32:56;;;;;;;3.53;1.27;;;;;;;;;;5013678;28;20095;-67
2023/04/13 00:35:25;;;;;;;3.95;1.25;;;;;;;;;;5005240;28;20056;-68
2023/04/13 00:37:51;;;;;;;2.65;1.08;;;;;;;;;;5002263;28;20095;-68
2023/04/13 00:40:17;;;;;;;8.88;1.05;;;;;;;;;;5004927;28;20477;-67
2023/04/13 00:42:45;;;;;;;5.15;0.93;;;;;;;;;;5002539;28;20030;-68
2023/04/13 00:45:12;;;;;;;6.38;1.10;;;;;;;;;;4999324;28;20041;-68
2023/04/13 00:47:40;;;;;;;6.00;1.25;;;;;;;;;;5007583;28;20060;-68
2023/04/13 00:50:06;;;;;;;5.10;1.02;;;;;;;;;;5005302;28;20045;-68
2023/04/13 00:52:37;;;;;;;5.97;1.45;;;;;;;;;;5001904;28;20038;-68
2023/04/13 00:55:03;;;;;;;5.35;1.17;;;;;;;;;;5006306;28;20036;-68
2023/04/13 00:57:31;;;;;;;3.40;1.10;;;;;;;;;;4997341;28;20075;-68
2023/04/13 00:59:57;;;;;;;3.83;0.82;;;;;;;;;;5007315;28;20065;-67
2023/04/13 01:02:25;;;;;;;5.50;1.10;;;;;;;;;;5015736;28;20029;-68
2023/04/13 01:04:54;;;;;;;5.88;1.42;;;;;;;;;;5016173;28;20118;-68
2023/04/13 01:07:40;;;;;;;6.97;1.23;;;;;;;;;;4996256;28;20526;-67
2023/04/13 01:10:15;;;;;;;3.03;1.02;;;;;;;;;;5008855;28;20421;-67
2023/04/13 01:12:55;;;;;;;3.20;1.08;;;;;;;;;;5009746;28;20125;-67
2023/04/13 01:15:22;;;;;;;5.88;1.33;;;;;;;;;;5008489;28;20038;-67
2023/04/13 01:17:57;;;;;;;6.82;1.13;;;;;;;;;;4998420;28;20042;-67
2023/04/13 01:20:26;;;;;;;5.72;1.42;;;;;;;;;;5015182;28;20117;-67
2023/04/13 01:23:03;;;;;;;6.40;1.40;;;;;;;;;;5008811;28;20032;-67
2023/04/13 01:25:38;;;;;;;6.00;1.30;;;;;;;;;;4997603;28;20035;-67
2023/04/13 01:28:06;;;;;;;10.38;2.50;;;;;;;;;;5011171;28;20115;-67
2023/04/13 01:30:34;;;;;;;11.52;1.67;;;;;;;;;;4999679;28;20084;-68
2023/04/13 01:33:01;;;;;;;5.95;1.67;;;;;;;;;;4995661;28;20322;-67
2023/04/13 01:35:28;;;;;;;10.02;1.42;;;;;;;;;;4996700;28;20042;-68
2023/04/13 01:37:54;;;;;;;12.27;1.52;;;;;;;;;;5009288;28;20553;-67
2023/04/13 01:40:20;;;;;;;8.65;2.05;;;;;;;;;;5009742;28;20034;-68
2023/04/13 01:42:46;;;;;;;11.80;2.08;;;;;;;;;;5016696;28;20033;-67
2023/04/13 01:45:19;;;;;;;8.32;1.55;;;;;;;;;;5018133;28;20092;-67
2023/04/13 01:47:56;;;;;;;8.63;1.92;;;;;;;;;;5009119;28;20065;-67
2023/04/13 01:50:30;;;;;;;14.25;1.98;;;;;;;;;;5004456;28;20591;-67
2023/04/13 01:53:06;;;;;;;6.13;1.65;;;;;;;;;;5001034;28;20048;-68
2023/04/13 01:55:36;;;;;;;16.10;2.53;;;;;;;;;;4995572;28;20076;-67
2023/04/13 01:58:03;;;;;;;11.38;2.03;;;;;;;;;;5008066;28;20459;-68
2023/04/13 02:00:35;;;;;;;12.80;2.15;;;;;;;;;;5008455;28;20030;-68
2023/04/13 02:03:03;;;;;;;5.75;1.55;;;;;;;;;;5005395;28;20400;-68
2023/04/13 02:05:29;;;;;;;13.38;2.33;;;;;;;;;;5008033;28;20046;-68
2023/04/13 02:07:54;;;;;;;9.18;2.22;;;;;;;;;;4999872;28;20044;-68
2023/04/13 02:10:21;;;;;;;11.30;2.20;;;;;;;;;;5001725;28;20045;-68
2023/04/13 02:12:46;;;;;;;12.48;2.25;;;;;;;;;;5008196;28;20029;-68
2023/04/13 02:15:12;;;;;;;7.05;1.83;;;;;;;;;;5007798;28;20045;-68
2023/04/13 02:17:38;;;;;;;13.32;2.03;;;;;;;;;;4998332;28;20089;-68
2023/04/13 02:20:10;;;;;;;7.15;1.27;;;;;;;;;;5015966;28;20556;-68
2023/04/13 02:22:35;;;;;;;6.40;1.52;;;;;;;;;;4999265;28;20030;-68
2023/04/13 02:25:00;;;;;;;6.03;1.30;;;;;;;;;;5010652;28;20083;-68
2023/04/13 02:27:27;;;;;;;5.95;1.20;;;;;;;;;;5010748;28;20049;-67
2023/04/13 02:29:54;;;;;;;6.35;1.50;;;;;;;;;;5004174;28;20045;-68
2023/04/13 02:32:19;;;;;;;8.10;1.40;;;;;;;;;;4997967;28;20038;-67
2023/04/13 02:34:45;;;;;;;4.03;1.60;;;;;;;;;;5011914;28;20030;-68
2023/04/13 02:37:10;;;;;;;3.65;1.30;;;;;;;;;;5007533;28;20536;-67
2023/04/13 02:39:36;;;;;;;6.63;2.22;;;;;;;;;;5007146;28;20049;-68
2023/04/13 02:42:01;;;;;;;5.72;1.80;;;;;;;;;;4998519;28;20421;-68
2023/04/13 02:44:27;;;;;;;5.40;1.52;;;;;;;;;;5007284;28;20473;-68
2023/04/13 02:46:52;;;;;;;13.80;1.85;;;;;;;;;;5007475;28;20053;-67
2023/04/13 02:49:17;;;;;;;7.53;1.67;;;;;;;;;;5006327;28;20049;-68
2023/04/13 02:51:43;;;;;;;9.07;2.30;;;;;;;;;;4998554;28;20117;-67
2023/04/13 02:54:10;;;;;;;8.65;1.95;;;;;;;;;;5003490;28;20180;-68
2023/04/13 02:56:35;;;;;;;7.65;2.13;;;;;;;;;;5006869;28;20107;-68
2023/04/13 02:59:00;;;;;;;11.70;2.35;;;;;;;;;;5007444;28;20521;-67
2023/04/13 03:01:28;;;;;;;11.60;1.77;;;;;;;;;;5005528;28;20595;-68
2023/04/13 03:03:54;;;;;;;11.05;2.65;;;;;;;;;;5006727;28;20017;-68
2023/04/13 03:06:21;;;;;;;12.57;2.85;;;;;;;;;;5015340;28;20404;-67
2023/04/13 03:08:47;;;;;;;13.02;2.72;;;;;;;;;;5014238;28;20987;-68
2023/04/13 03:11:12;;;;;;;10.73;3.00;;;;;;;;;;5006533;28;20541;-68
2023/04/13 03:13:38;;;;;;;11.02;2.40;;;;;;;;;;5011446;28;20109;-67
2023/04/13 03:16:04;;;;;;;25.27;3.08;;;;;;;;;;4998516;28;20077;-68
2023/04/13 03:18:30;;;;;;;13.48;2.60;;;;;;;;;;4991878;28;20032;-68
2023/04/13 03:20:55;;;;;;;9.00;2.28;;;;;;;;;;4997234;28;20038;-68
2023/04/13 03:23:21;;;;;;;11.60;1.95;;;;;;;;;;5005080;28;20491;-68
2023/04/13 03:25:46;;;;;;;11.32;2.10;;;;;;;;;;5006887;28;20587;-68
2023/04/13 03:28:11;;;;;;;14.93;2.75;;;;;;;;;;5006722;28;20041;-67
2023/04/13 03:30:37;;;;;;;16.20;2.90;;;;;;;;;;5006532;28;20544;-68
2023/04/13 03:33:02;;;;;;;11.23;2.50;;;;;;;;;;5006863;28;20560;-68
2023/04/13 03:35:27;;;;;;;7.95;2.10;;;;;;;;;;5006117;28;20033;-68
2023/04/13 03:37:53;;;;;;;5.68;1.83;;;;;;;;;;5006432;28;20116;-68
2023/04/13 03:40:19;;;;;;;8.95;1.92;;;;;;;;;;5006529;28;20046;-68
2023/04/13 03:42:45;;;;;;;8.55;2.13;;;;;;;;;;5010066;28;20026;-67
2023/04/13 03:45:10;;;;;;;9.48;2.03;;;;;;;;;;5006572;28;20105;-68
2023/04/13 03:47:37;;;;;;;5.63;1.65;;;;;;;;;;5006090;28;20038;-68
2023/04/13 03:50:03;;;;;;;10.60;2.42;;;;;;;;;;5000828;28;20161;-68
2023/04/13 03:52:28;;;;;;;10.35;2.20;;;;;;;;;;5014031;28;20457;-68
2023/04/13 03:54:54;;;;;;;10.13;2.05;;;;;;;;;;5004772;28;20030;-68
2023/04/13 03:57:21;;;;;;;9.65;1.50;;;;;;;;;;5006097;28;20552;-68
2023/04/13 03:59:46;;;;;;;7.82;2.08;;;;;;;;;;5005990;28;20048;-68
2023/04/13 04:02:12;;;;;;;4.82;1.60;;;;;;;;;;5007307;28;20026;-68
2023/04/13 04:04:37;;;;;;;10.50;2.30;;;;;;;;;;5005909;28;20030;-68
2023/04/13 04:07:02;;;;;;;12.80;2.15;;;;;;;;;;5005217;28;20034;-68
2023/04/13 04:09:28;;;;;;;11.82;2.45;;;;;;;;;;5002903;28;20022;-68
2023/04/13 04:11:54;;;;;;;15.45;2.58;;;;;;;;;;5001630;28;20057;-68
2023/04/13 04:14:19;;;;;;;13.00;2.00;;;;;;;;;;5016470;28;20037;-68
2023/04/13 04:16:45;;;;;;;10.88;2.40;;;;;;;;;;4991951;28;20566;-68
2023/04/13 04:19:10;;;;;;;11.48;2.13;;;;;;;;;;4995436;28;20033;-68
2023/04/13 04:21:36;;;;;;;8.82;2.10;;;;;;;;;;5005758;28;20026;-67
2023/04/13 04:24:05;;;;;;;12.82;2.35;;;;;;;;;;5005963;28;20069;-68
2023/04/13 04:26:31;;;;;;;12.23;2.33;;;;;;;;;;5009157;28;20040;-67
2023/04/13 04:29:02;;;;;;;16.85;2.97;;;;;;;;;;5010621;28;20037;-67
2023/04/13 04:31:33;;;;;;;11.13;2.38;;;;;;;;;;5018101;28;20108;-67
2023/04/13 04:33:59;;;;;;;12.52;2.78;;;;;;;;;;5008707;28;20618;-67
2023/04/13 04:36:25;;;;;;;11.23;2.38;;;;;;;;;;5005270;28;20041;-67
2023/04/13 04:38:56;;;;;;;12.27;3.03;;;;;;;;;;5005869;28;20030;-67
2023/04/13 04:41:22;;;;;;;12.88;2.83;;;;;;;;;;5000147;28;20126;-67
2023/04/13 04:43:48;;;;;;;17.08;3.05;;;;;;;;;;4995177;28;20033;-67
2023/04/13 04:46:14;;;;;;;16.20;2.55;;;;;;;;;;5005163;28;20054;-67
2023/04/13 04:48:40;;;;;;;15.10;2.25;;;;;;;;;;5005701;28;20500;-67
2023/04/13 04:51:07;;;;;;;11.43;2.60;;;;;;;;;;5005607;28;20030;-67
2023/04/13 04:53:33;;;;;;;19.92;3.35;;;;;;;;;;5005092;28;20109;-67
2023/04/13 04:55:58;;;;;;;9.73;2.25;;;;;;;;;;5005325;28;20173;-67
2023/04/13 04:58:24;;;;;;;10.55;2.88;;;;;;;;;;5003667;28;20033;-67
2023/04/13 05:00:51;;;;;;;10.63;2.65;;;;;;;;;;5004756;28;20030;-67
2023/04/13 05:03:16;;;;;;;8.30;1.92;;;;;;;;;;5005272;28;20583;-67
2023/04/13 05:05:42;;;;;;;18.20;2.90;;;;;;;;;;5005368;28;20034;-67
2023/04/13 05:08:08;;;;;;;12.68;2.58;;;;;;;;;;5004668;28;20049;-67
2023/04/13 05:10:33;;;;;;;11.38;2.92;;;;;;;;;;5004343;28;20050;-67
2023/04/13 05:12:59;;;;;;;11.05;2.95;;;;;;;;;;5005351;28;20029;-67
2023/04/13 05:15:25;;;;;;;16.30;2.40;;;;;;;;;;5001197;28;20755;-67
2023/04/13 05:17:52;;;;;;;21.40;3.33;;;;;;;;;;5002810;28;20049;-67
2023/04/13 05:20:18;;;;;;;13.23;2.65;;;;;;;;;;5004108;28;20053;-67
2023/04/13 05:22:43;;;;;;;12.23;2.67;;;;;;;;;;5004950;28;20156;-67
2023/04/13 05:25:09;;;;;;;9.05;2.28;;;;;;;;;;5003796;28;20124;-67
2023/04/13 05:27:34;;;;;;;17.77;2.85;;;;;;;;;;5005666;28;20030;-67
2023/04/13 05:30:00;;;;;;;16.25;2.92;;;;;;;;;;5009964;28;20682;-67
2023/04/13 05:32:25;;;;;;;15.82;2.70;;;;;;;;;;5004213;28;20535;-67
2023/04/13 05:34:50;;;;;;;13.95;2.72;;;;;;;;;;5004094;28;20087;-67
2023/04/13 05:37:16;;;;;;;17.23;2.78;;;;;;;;;;5012693;28;20033;-67
2023/04/13 05:39:41;;;;;;;14.05;2.85;;;;;;;;;;5005466;28;20152;-67
2023/04/13 05:42:07;;;;;;;15.40;2.00;;;;;;;;;;4995997;28;20737;-68
2023/04/13 05:44:32;;;;;;;16.65;2.78;;;;;;;;;;5000087;28;20429;-68
2023/04/13 05:46:57;;;;;;;28.73;3.30;;;;;;;;;;5007860;28;20464;-68
2023/04/13 05:49:22;;;;;;;17.70;2.97;;;;;;;;;;5008550;28;20033;-67
2023/04/13 05:51:48;;;;;;;24.65;3.28;;;;;;;;;;5012412;28;20037;-67
2023/04/13 05:54:13;;;;;;;20.45;2.50;;;;;;;;;;5018656;28;20057;-67
2023/04/13 05:56:39;;;;;;;15.77;2.58;;;;;;;;;;5007000;28;20180;-67
2023/04/13 05:59:05;;;;;;;29.02;3.83;;;;;;;;;;5007501;28;20099;-67
2023/04/13 06:01:30;;;;;;;15.27;3.13;;;;;;;;;;5004221;28;20740;-67
2023/04/13 06:03:56;;;;;;;22.70;3.35;;;;;;;;;;4999358;28;20033;-67
2023/04/13 06:06:21;;;;;;;18.90;2.97;;;;;;;;;;5004374;28;20034;-67
2023/04/13 06:08:47;;;;;;;16.65;3.17;;;;;;;;;;5007290;28;20040;-68
2023/04/13 06:11:12;;;;;;;20.08;3.53;;;;;;;;;;5005661;28;20065;-67
2023/04/13 06:13:40;;;;;;;25.52;4.18;;;;;;;;;;5004787;28;20791;-68
2023/04/13 06:16:06;;;;;;;17.42;2.80;;;;;;;;;;4997607;28;20041;-67
2023/04/13 06:18:31;;;;;;;19.13;3.30;;;;;;;;;;5003900;28;20030;-67
2023/04/13 06:20:57;;;;;;;21.05;2.88;;;;;;;;;;5007197;28;20535;-68
2023/04/13 06:23:22;;;;;;;18.38;2.47;;;;;;;;;;5007607;28;20034;-67
2023/04/13 06:25:48;;;;;;;22.75;3.40;;;;;;;;;;5006394;28;20544;-68
2023/04/13 06:28:14;;;;;;;29.67;3.55;;;;;;;;;;4998186;28;20045;-67
2023/04/13 06:30:40;;;;;;;9.48;2.10;;;;;;;;;;4993935;28;20018;-67
2023/04/13 06:33:06;;;;;;;15.80;2.53;;;;;;;;;;4998177;28;20553;-67
2023/04/13 06:35:32;;;;;;;16.75;3.67;;;;;;;;;;5004833;28;20065;-67
2023/04/13 06:38:01;;;;;;;12.68;2.60;;;;;;;;;;5006800;28;20128;-67
2023/04/13 06:40:27;;;;;;;15.15;2.60;;;;;;;;;;5011090;28;20567;-68
2023/04/13 06:42:53;;;;;;;15.38;2.38;;;;;;;;;;5017094;28;20018;-68
2023/04/13 06:45:19;;;;;;;17.52;2.25;;;;;;;;;;5007970;28;20456;-67
2023/04/13 06:47:45;;;;;;;11.95;2.15;;;;;;;;;;5005836;28;20030;-67
2023/04/13 06:50:12;;;;;;;23.75;3.25;;;;;;;;;;4996464;28;20080;-67
2023/04/13 06:52:41;;;;;;;15.27;2.78;;;;;;;;;;4992291;28;20072;-67
2023/04/13 06:55:06;;;;;;;10.68;2.47;;;;;;;;;;5005402;28;20024;-67
2023/04/13 06:57:32;;;;;;;11.90;2.38;;;;;;;;;;5005728;28;20018;-67
2023/04/13 06:59:58;;;;;;;9.40;2.22;;;;;;;;;;5006491;28;20044;-67
2023/04/13 07:02:25;;;;;;;12.43;2.63;;;;;;;;;;5005321;28;20583;-68
2023/04/13 07:04:51;;;;;;;13.93;2.03;;;;;;;;;;5005198;28;20069;-67
2023/04/13 07:07:16;;;;;;;16.40;2.67;;;;;;;;;;5004745;28;20068;-67
2023/04/13 07:09:42;;;;;;;12.43;2.45;;;;;;;;;;5006939;28;20038;-67
2023/04/13 07:12:07;;;;;;;13.77;2.47;;;;;;;;;;4988101;28;20038;-67
2023/04/13 07:14:34;;;;;;;11.32;2.10;;;;;;;;;;5003393;28;20087;-67
2023/04/13 07:17:00;;;;;;;14.25;2.80;;;;;;;;;;5009839;28;20034;-67
2023/04/13 07:19:26;;;;;;;18.42;3.13;;;;;;;;;;5013260;28;20053;-67
2023/04/13 07:21:51;;;;;;;5.07;2.03;;;;;;;;;;5004044;28;20025;-67
2023/04/13 07:24:17;;;;;;;12.95;2.13;;;;;;;;;;5005818;28;20089;-67
2023/04/13 07:26:43;;;;;;;18.80;2.88;;;;;;;;;;5005186;28;20077;-67
2023/04/13 07:29:12;;;;;;;8.05;2.80;;;;;;;;;;5005801;28;20091;-67
2023/04/13 07:31:38;;;;;;;10.43;1.98;;;;;;;;;;5003034;28;20456;-67
2023/04/13 07:34:04;;;;;;;12.02;2.60;;;;;;;;;;5005348;28;20029;-67
2023/04/13 07:36:30;;;;;;;7.72;2.03;;;;;;;;;;5005894;28;20029;-67
2023/04/13 07:38:56;;;;;;;11.23;2.55;;;;;;;;;;5006904;28;20034;-67
2023/04/13 07:41:23;;;;;;;16.83;2.50;;;;;;;;;;5006348;28;20052;-67
2023/04/13 07:43:48;;;;;;;9.70;2.17;;;;;;;;;;5004930;28;20038;-66
2023/04/13 07:46:14;;;;;;;11.52;2.13;;;;;;;;;;5006747;28;20029;-67
2023/04/13 07:48:40;;;;;;;12.15;2.72;;;;;;;;;;5006526;28;20034;-67
2023/04/13 07:51:06;;;;;;;10.57;2.03;;;;;;;;;;5004301;28;20038;-67
2023/04/13 07:53:31;;;;;;;15.88;3.00;;;;;;;;;;5001106;28;20080;-67
2023/04/13 07:55:57;;;;;;;9.73;1.73;;;;;;;;;;4999746;28;20045;-67
2023/04/13 07:58:22;;;;;;;10.27;2.03;;;;;;;;;;5002036;28;20095;-67
2023/04/13 08:00:48;;;;;;;14.98;2.90;;;;;;;;;;5001003;28;20172;-67
2023/04/13 08:03:13;;;;;;;7.93;2.40;;;;;;;;;;5007778;28;20030;-67
2023/04/13 08:05:38;;;;;;;10.63;2.20;;;;;;;;;;5005257;28;20046;-67
2023/04/13 08:08:04;;;;;;;10.82;2.30;;;;;;;;;;5005176;28;20591;-67
2023/04/13 08:10:29;;;;;;;6.82;1.88;;;;;;;;;;5005156;28;20053;-67
2023/04/13 08:12:55;;;;;;;16.08;2.50;;;;;;;;;;5004419;28;20032;-67
2023/04/13 08:15:20;;;;;;;10.63;2.00;;;;;;;;;;4999795;28;20513;-67
2023/04/13 08:17:46;;;;;;;10.50;1.98;;;;;;;;;;5001016;28;20098;-67
2023/04/13 08:20:12;;;;;;;7.35;1.80;;;;;;;;;;4991474;28;20034;-66
2023/04/13 08:22:37;;;;;;;10.60;2.22;;;;;;;;;;5003459;28;20037;-67
2023/04/13 08:25:05;;;;;;;10.05;2.63;;;;;;;;;;4989493;28;20029;-67
2023/04/13 08:27:31;;;;;;;7.60;1.35;;;;;;;;;;4997922;28;20042;-67
2023/04/13 08:30:00;;;;;;;9.30;1.73;;;;;;;;;;5004952;28;20091;-67
2023/04/13 08:32:26;;;;;;;9.10;2.03;;;;;;;;;;4998386;28;20038;-67
2023/04/13 08:34:52;;;;;;;7.18;1.65;;;;;;;;;;5004624;28;20034;-67
2023/04/13 08:37:19;;;;;;;8.25;1.85;;;;;;;;;;5007027;28;20029;-67
2023/04/13 08:39:45;;;;;;;12.43;2.60;;;;;;;;;;5012106;28;20040;-67
2023/04/13 08:42:11;;;;;;;9.48;2.05;;;;;;;;;;5016071;28;20042;-67
2023/04/13 08:44:39;;;;;;;11.35;2.00;;;;;;;;;;5005364;28;20409;-67
2023/04/13 08:47:04;;;;;;;8.95;1.90;;;;;;;;;;5004634;28;20042;-67
2023/04/13 08:49:31;;;;;;;7.68;1.83;;;;;;;;;;5005081;28;20053;-67
2023/04/13 08:51:58;;;;;;;11.63;2.55;;;;;;;;;;5003811;28;20061;-67
2023/04/13 08:54:27;;;;;;;14.18;1.90;;;;;;;;;;5005513;28;20026;-67
2023/04/13 08:56:53;;;;;;;14.68;2.03;;;;;;;;;;5004651;28;20624;-67
2023/04/13 08:59:20;;;;;;;11.52;2.53;;;;;;;;;;4996005;28;20595;-67
2023/04/13 09:01:47;;;;;;;9.43;2.25;;;;;;;;;;5003201;28;20034;-69
2023/04/13 09:04:16;;;;;;;9.45;1.70;;;;;;;;;;4996264;28;20022;-67
2023/04/13 09:06:44;;;;;;;9.35;1.70;;;;;;;;;;4985680;28;20042;-67
2023/04/13 09:09:14;;;;;;;11.43;2.08;;;;;;;;;;4991425;28;20091;-67
2023/04/13 09:11:41;;;;;;;9.38;1.90;;;;;;;;;;5001171;28;20034;-67
2023/04/13 09:14:07;;;;;;;10.13;1.67;;;;;;;;;;4999977;28;20038;-67
2023/04/13 09:16:40;;;;;;;8.90;1.75;;;;;;;;;;5002690;28;20036;-67
2023/04/13 09:19:07;;;;;;;9.25;2.58;;;;;;;;;;5003067;28;20026;-67
2023/04/13 09:21:36;;;;;;;9.93;1.73;;;;;;;;;;5005628;28;20476;-67
2023/04/13 09:24:01;;;;;;;8.65;1.55;;;;;;;;;;5006814;28;20460;-70
2023/04/13 09:26:27;;;;;;;4.90;1.45;;;;;;;;;;5006217;28;20041;-68
2023/04/13 09:28:56;;;;;;;9.73;1.52;;;;;;;;;;5006735;28;20037;-68
2023/04/13 09:31:21;;;;;;;10.88;2.00;;;;;;;;;;5006243;28;20018;-68
2023/04/13 09:33:51;;;;;;;8.98;1.83;;;;;;;;;;5006382;28;20048;-68
2023/04/13 09:36:18;;;;;;;6.57;1.42;;;;;;;;;;5003492;28;20051;-68
2023/04/13 09:38:51;;;;;;;8.20;1.52;;;;;;;;;;5006189;28;20513;-68
2023/04/13 09:41:36;;;;;;;5.57;1.50;;;;;;;;;;5005305;28;20037;-68
2023/04/13 09:44:13;;;;;;;10.90;1.80;;;;;;;;;;5006865;28;20042;-68
2023/04/13 09:46:39;;;;;;;3.42;1.45;;;;;;;;;;5006278;28;20501;-68
2023/04/13 09:49:04;;;;;;;9.05;1.88;;;;;;;;;;5008223;28;20057;-68
2023/04/13 09:51:40;;;;;;;8.52;1.80;;;;;;;;;;5003486;28;20026;-68
2023/04/13 09:54:06;;;;;;;9.27;2.28;;;;;;;;;;5002195;28;20097;-68
2023/04/13 09:56:42;;;;;;;5.72;1.35;;;;;;;;;;5006364;28;20065;-67
2023/04/13 09:59:08;;;;;;;11.70;1.80;;;;;;;;;;5005887;28;20125;-67
2023/04/13 10:01:36;;;;;;;5.13;1.50;;;;;;;;;;5012002;28;20025;-67
2023/04/13 10:04:04;;;;;;;5.43;1.48;;;;;;;;;;5016509;28;20030;-68
2023/04/13 10:06:30;;;;;;;7.60;1.85;;;;;;;;;;5004132;28;20096;-68
2023/04/13 10:08:56;;;;;;;6.60;1.48;;;;;;;;;;5006204;28;20026;-68
2023/04/13 10:11:22;;;;;;;5.32;1.50;;;;;;;;;;5006170;28;20038;-68
2023/04/13 10:13:55;;;;;;;8.75;1.65;;;;;;;;;;5007693;28;20120;-67
2023/04/13 10:16:46;;;;;;;4.75;1.20;;;;;;;;;;5008622;28;20581;-67
2023/04/13 10:19:15;;;;;;;3.95;1.02;;;;;;;;;;4975258;28;20137;-67
2023/04/13 10:21:47;;;;;;;5.43;1.25;;;;;;;;;;5008527;28;20129;-67
2023/04/13 10:24:13;;;;;;;9.55;1.33;;;;;;;;;;5002499;28;20034;-67
2023/04/13 10:26:40;;;;;;;5.47;1.40;;;;;;;;;;5005874;28;20033;-67
2023/04/13 10:29:08;;;;;;;7.50;1.23;;;;;;;;;;4998221;28;20062;-67
2023/04/13 10:31:55;;;;;;;8.77;1.42;;;;;;;;;;4999495;28;20782;-67
2023/04/13 10:34:26;;;;;;;4.68;1.30;;;;;;;;;;4992797;28;20030;-67
2023/04/13 10:36:54;;;;;;;4.22;1.30;;;;;;;;;;5001834;28;20010;-67
2023/04/13 10:39:27;;;;;;;3.38;0.88;;;;;;;;;;5008131;28;20120;-67
2023/04/13 10:42:09;;;;;;;6.97;1.40;;;;;;;;;;4999188;28;20125;-67
2023/04/13 10:44:44;;;;;;;9.68;2.72;;;;;;;;;;5003287;28;20065;-67
2023/04/13 10:47:11;;;;;;;7.32;2.30;;;;;;;;;;5004461;28;20056;-67
2023/04/13 10:49:37;;;;;;;6.30;1.58;;;;;;;;;;5006136;28;20025;-67
2023/04/13 10:52:02;;;;;;;6.75;1.45;;;;;;;;;;5008247;28;20018;-67
2023/04/13 10:54:29;;;;;;;11.73;1.65;;;;;;;;;;5003521;28;20088;-67
2023/04/13 10:57:02;;;;;;;7.45;1.42;;;;;;;;;;5000910;28;20034;-67
2023/04/13 10:59:57;;;;;;;5.00;1.10;;;;;;;;;;5001577;28;20108;-67
2023/04/13 11:02:30;;;;;;;6.07;1.73;;;;;;;;;;5004499;28;20034;-67
2023/04/13 11:04:55;;;;;;;3.08;1.20;;;;;;;;;;5006482;28;20107;-67
2023/04/13 11:07:22;;;;;;;2.85;0.75;;;;;;;;;;5004907;28;20077;-67
2023/04/13 11:09:51;;;;;;;3.65;1.33;;;;;;;;;;5005704;28;20077;-67
2023/04/13 11:12:18;;;;;;;5.75;1.13;;;;;;;;;;5003329;28;20142;-68
2023/04/13 11:14:48;;;;;;;8.55;1.33;;;;;;;;;;5006971;28;20061;-67
2023/04/13 11:17:16;;;;;;;6.30;1.40;;;;;;;;;;4996538;28;20046;-67
2023/04/13 11:19:52;;;;;;;5.00;1.00;;;;;;;;;;5002147;28;20042;-67
2023/04/13 11:22:21;;;;;;;6.78;0.90;;;;;;;;;;5017314;28;20061;-67
2023/04/13 11:24:47;;;;;;;4.32;0.90;;;;;;;;;;5012753;28;20038;-67
2023/04/13 11:27:23;;;;;;;4.72;0.90;;;;;;;;;;5014387;28;20171;-68
2023/04/13 11:30:03;;;;;;;4.70;0.88;;;;;;;;;;5002859;28;20033;-68
2023/04/13 11:32:29;;;;;;;6.25;1.33;;;;;;;;;;4998179;28;20038;-67
2023/04/13 11:35:24;;;;;;;5.18;1.10;;;;;;;;;;5004960;28;20632;-67
2023/04/13 11:37:52;;;;;;;3.67;0.95;;;;;;;;;;4995979;28;20049;-67
2023/04/13 11:40:24;;;;;;;4.13;1.63;;;;;;;;;;4999598;28;20476;-67
2023/04/13 11:42:52;;;;;;;4.28;1.00;;;;;;;;;;4996869;28;20038;-67
2023/04/13 11:45:19;;;;;;;5.55;1.20;;;;;;;;;;5005728;28;20117;-67
2023/04/13 11:47:45;;;;;;;7.55;1.40;;;;;;;;;;5005546;28;20061;-67
2023/04/13 11:50:11;;;;;;;5.00;1.42;;;;;;;;;;5006139;28;20058;-67
2023/04/13 11:52:38;;;;;;;4.85;1.17;;;;;;;;;;4986958;28;20715;-68
2023/04/13 11:55:05;;;;;;;3.22;0.70;;;;;;;;;;4997160;28;20390;-68
2023/04/13 11:57:33;;;;;;;8.27;1.52;;;;;;;;;;5003092;28;20033;-68
2023/04/13 11:59:59;;;;;;;4.43;1.38;;;;;;;;;;5003693;28;20061;-68
2023/04/13 12:02:29;;;;;;;3.58;1.13;;;;;;;;;;5003900;28;20030;-69
2023/04/13 12:04:55;;;;;;;3.40;1.20;;;;;;;;;;5004991;28;20048;-69
2023/04/13 12:07:21;;;;;;;4.63;1.20;;;;;;;;;;5003227;28;20026;-68
2023/04/13 12:09:49;;;;;;;9.00;1.55;;;;;;;;;;5005112;28;20037;-68
2023/04/13 12:12:20;;;;;;;3.80;1.00;;;;;;;;;;5000423;28;20053;-68
2023/04/13 12:14:56;;;;;;;5.43;0.95;;;;;;;;;;5005240;28;20034;-69
2023/04/13 12:17:32;;;;;;;4.20;1.08;;;;;;;;;;5002707;28;20125;-68
2023/04/13 12:19:59;;;;;;;9.18;1.20;;;;;;;;;;5004447;28;20033;-68
2023/04/13 12:22:38;;;;;;;3.47;0.90;;;;;;;;;;5005036;28;20025;-68
2023/04/13 12:25:16;;;;;;;3.78;1.00;;;;;;;;;;4997818;28;20021;-68
2023/04/13 12:27:42;;;;;;;3.78;0.95;;;;;;;;;;4996764;28;20041;-68
2023/04/13 12:30:12;;;;;;;4.78;1.40;;;;;;;;;;4993011;28;20099;-68
2023/04/13 12:32:53;;;;;;;5.78;1.67;;;;;;;;;;4997212;28;20052;-68
2023/04/13 12:35:18;;;;;;;6.47;1.17;;;;;;;;;;5000503;28;20038;-68
2023/04/13 12:37:45;;;;;;;2.80;0.90;;;;;;;;;;4999175;28;20038;-68
2023/04/13 12:40:13;;;;;;;3.47;1.08;;;;;;;;;;5003695;28;20049;-69
2023/04/13 12:42:41;;;;;;;2.90;1.13;;;;;;;;;;5004319;28;20034;-69
2023/04/13 12:45:07;;;;;;;3.72;0.75;;;;;;;;;;5006236;28;20041;-68
2023/04/13 12:47:32;;;;;;;3.13;1.13;;;;;;;;;;5011067;28;20042;-69
2023/04/13 12:49:57;;;;;;;7.18;1.52;;;;;;;;;;5015708;28;20050;-68
2023/04/13 12:52:23;;;;;;;5.32;1.20;;;;;;;;;;5005158;28;20029;-68
2023/04/13 12:54:49;;;;;;;3.90;1.00;;;;;;;;;;5005017;28;20544;-68
2023/04/13 12:57:16;;;;;;;4.57;1.27;;;;;;;;;;5004842;28;20037;-68
2023/04/13 12:59:45;;;;;;;5.72;1.52;;;;;;;;;;5007591;28;20049;-68
2023/04/13 13:02:10;;;;;;;7.47;1.40;;;;;;;;;;5010323;28;20133;-68
2023/04/13 13:04:35;;;;;;;4.95;1.58;;;;;;;;;;5006211;28;20113;-68
2023/04/13 13:07:01;;;;;;;4.63;1.00;;;;;;;;;;5007651;28;20029;-68
2023/04/13 13:09:27;;;;;;;5.47;1.50;;;;;;;;;;5007724;28;20046;-68
2023/04/13 13:11:52;;;;;;;4.68;1.50;;;;;;;;;;5008821;28;20046;-68
2023/04/13 13:14:19;;;;;;;5.97;1.38;;;;;;;;;;5007890;28;20049;-68
2023/04/13 13:16:45;;;;;;;4.68;1.70;;;;;;;;;;5006886;28;20057;-68
2023/04/13 13:19:10;;;;;;;6.85;1.40;;;;;;;;;;5003966;28;20072;-68
2023/04/13 13:21:35;;;;;;;5.18;1.58;;;;;;;;;;4995378;28;20675;-68
2023/04/13 13:24:01;;;;;;;6.57;1.67;;;;;;;;;;4993252;28;20042;-68
2023/04/13 13:26:26;;;;;;;11.40;1.80;;;;;;;;;;5006210;28;20037;-68
2023/04/13 13:28:52;;;;;;;5.85;1.10;;;;;;;;;;4997942;28;20033;-69
2023/04/13 13:31:17;;;;;;;8.55;1.52;;;;;;;;;;5006159;28;20025;-69
2023/04/13 13:33:43;;;;;;;8.90;1.42;;;;;;;;;;5005178;28;20061;-68
2023/04/13 13:36:08;;;;;;;5.88;1.30;;;;;;;;;;5000044;28;20054;-69
2023/04/13 13:38:34;;;;;;;5.15;1.50;;;;;;;;;;5002048;28;20052;-68
2023/04/13 13:41:00;;;;;;;10.65;1.48;;;;;;;;;;5005919;28;20046;-69
2023/04/13 13:43:25;;;;;;;7.97;1.15;;;;;;;;;;5009216;28;20037;-69
2023/04/13 13:45:50;;;;;;;6.55;1.73;;;;;;;;;;5008080;28;20071;-69
2023/04/13 13:48:16;;;;;;;7.75;1.50;;;;;;;;;;5006583;28;20456;-69
2023/04/13 13:50:41;;;;;;;5.47;1.45;;;;;;;;;;5007057;28;20081;-69
2023/04/13 13:53:07;;;;;;;8.02;1.13;;;;;;;;;;5007561;28;20045;-69
2023/04/13 13:55:33;;;;;;;8.68;1.70;;;;;;;;;;5006792;28;20042;-69
2023/04/13 13:57:58;;;;;;;3.30;0.90;;;;;;;;;;5006701;28;20499;-69
2023/04/13 14:00:24;;;;;;;7.30;1.40;;;;;;;;;;5007565;28;20686;-69
2023/04/13 14:02:50;;;;;;;3.58;1.00;;;;;;;;;;5006021;28;20068;-69
2023/04/13 14:05:16;;;;;;;8.40;1.40;;;;;;;;;;5006398;28;20125;-70
2023/04/13 14:07:44;;;;;;;7.60;1.70;;;;;;;;;;5007880;28;20042;-69
2023/04/13 14:10:10;;;;;;;4.40;1.58;;;;;;;;;;5015243;28;20033;-69
2023/04/13 14:12:40;;;;;;;5.85;1.38;;;;;;;;;;5015685;28;20041;-69
2023/04/13 14:15:07;;;;;;;7.32;1.27;;;;;;;;;;4995389;28;20038;-69
2023/04/13 14:17:33;;;;;;;3.63;1.10;;;;;;;;;;4994066;28;20835;-69
2023/04/13 14:19:58;;;;;;;6.93;2.45;;;;;;;;;;5006497;28;20129;-69
2023/04/13 14:22:23;;;;;;;5.43;1.40;;;;;;;;;;5014888;28;20433;-69
2023/04/13 14:24:50;;;;;;;5.18;1.20;;;;;;;;;;5006724;28;20100;-69
2023/04/13 14:27:17;;;;;;;4.82;1.20;;;;;;;;;;5007675;28;20206;-69
2023/04/13 14:29:45;;;;;;;4.90;1.48;;;;;;;;;;5008605;28;20040;-69
2023/04/13 14:32:10;;;;;;;8.57;1.83;;;;;;;;;;5007818;28;20129;-69
2023/04/13 14:34:36;;;;;;;4.00;1.15;;;;;;;;;;5005371;28;20098;-68
2023/04/13 14:37:01;;;;;;;5.57;1.45;;;;;;;;;;5008162;28;20026;-68
2023/04/13 14:39:26;;;;;;;8.43;1.23;;;;;;;;;;5008496;28;20589;-68